Aktualne dane pomiarowe

Uwaga, wersja testowa! Automatyczne pobieranie danych za pomocą narzędzi lub skryptów to umożliwiających jest zabronione.

Dane meteo z obszaru Polski uzyskane na podstawie depesz SYNOP pobieranych co godzinę z NWS. Najedź myszką na symbol przedstawiony w tabeli, aby uzyskać informacje co do jego znaczenia. Prosimy pamiętać, że to testowa wersja strony, która jeszcze nie jest ukończona. Stworzono również jest krótki FAQ dotyczący korzystania z tej podstrony Anomalie temperatury w chwili obecnej odniesione są do okresu referencyjnego 1951-2016. Okres ten będzie później zmieniony na 1981-2010. Kliknij ikonę aby pobrać plik CSV. Kliknij ikonę aby wygenerować mapę synoptyczną dla danego terminu.

Wybierz Datę:    

        

Wrocław-Strachowice (12424)

Dane terminowe dla wybranej stacji. Kliknij datę, aby otrzymać dane z tego terminu dla wszystkich stacji.

TemperaturaZachmurzenieWiatrCiśnienieOpadyPogoda
 Data t td wb tx tn tg rh  Nt Nl Cl Cm Ch ws wd g1 g2 wx mslp ppp ch 24h 12h t ww ww w1 w2  
2019-07-12 23:00:00 15.6 15.0 15.1--- 9612.0wx-wx2wx--21010.0 995.6 -0.1---------
2019-07-12 22:00:00 15.8 15.2 15.3--- 9612.0wx-wx2wx---1010.1 995.7 0.0---------
2019-07-12 21:00:00 15.7 15.2 15.3--- 978.0wx-wx2wx--21010.2 995.8 0.3---wx-w1--
2019-07-12 20:00:00 16.5 15.9 16.0--- 967.0wx-wxwx2wx--21010.0 995.7 -0.1---wx---
2019-07-12 19:00:00 17.5 16.2 16.6--- 9230.0wxwxwxwxwx2wx--21010.0 995.7 -0.6---------
2019-07-12 18:00:00 18.3 15.7 16.5 22.8 17.5- 8540.0wxwxwxwxwx2wx--21009.7 995.5 -0.8- 2.012wx-w1w2--
2019-07-12 17:00:00 18.0 16.0 16.6--- 8840.0wxwxwxwx2wx--21010.1 995.8 -0.8---wx-w1--
2019-07-12 16:00:00 17.8 14.5 15.5--- 8140.0wxwxwxwx1wx--11010.6 996.3 -0.4---wx-w1--
2019-07-12 15:00:00 17.7 15.7 16.3--- 8825.0wxwxwxwx3wx--31010.6 996.3 -0.2---wx-w1--
2019-07-12 14:00:00 17.8 16.0 16.5--- 8920.0wxwxwxwx3wx--31010.9 996.6 0.3---wx-w1w2--
2019-07-12 13:00:00 18.8 16.0 16.8--- 8425.0wxwxwxwx2wx--21010.9 996.7 0.4---wx-w1w2--
2019-07-12 12:00:00 18.5 15.4 16.4--- 8225.0wxwxwx4wx--41010.7 996.5 0.0--6wx---
2019-07-12 11:00:00 21.9 12.7 16.2--- 5640.0wxwxwx3wx--31010.4 996.3 -0.4---------
2019-07-12 10:00:00 22.0 12.3 16.0--- 5450.0wxwxwxwxwx2wx--21010.4 996.3 -0.5---------
2019-07-12 09:00:00 21.9 12.4 16.0--- 5550.0wxwxwxwxwx2wx--21010.6 996.5 -0.2---------
2019-07-12 08:00:00 19.8 12.5 15.2--- 6350.0wxwxwxwx2wx--21010.9 996.7 0.1---------
2019-07-12 07:00:00 19.1 11.9 14.6--- 6350.0wx-wxwx2wx--21011.0 996.8 0.3---------
2019-07-12 06:00:00 18.6 11.2 14.0 23.5 9.6 7 6250.0wx-wxwx4wx--41010.9 996.7 0.2- 0.012----- 11.2
2019-07-12 05:00:00 15.4 10.0 12.0--- 7050.0wx-wx2wx---1011.0 996.6 -0.1---------
2019-07-12 04:00:00 12.9 8.8 10.3--- 7650.0wx-wxwx1wx--11011.0 996.5 -0.6---------
2019-07-12 03:00:00 11.0 8.2 9.2--- 8350.0wx-wxwx0---01011.1 996.5 -0.6---------
2019-07-12 02:00:00 9.9 8.0 8.6--- 8850.0wx-wxwx1wx--11011.4 996.7 -0.7---------
2019-07-12 01:00:00 11.6 8.3 9.5--- 8050.0wx-wx1wx--11011.7 997.1 -0.5---------
2019-07-12 00:00:00 11.9 8.2 9.6--- 7840.0wx-wx0---01011.7 997.1 -0.4- 0.06------
2019-07-11 23:00:00 13.1 8.2 10.1--- 7240.0wx-wx0---01011.9 997.4 -0.1---------
2019-07-11 22:00:00 13.4 8.9 10.6--- 7440.0wx-wx1wx--11012.1 997.6 0.4---------
2019-07-11 21:00:00 15.4 8.6 11.3--- 6440.0wx-wx0---01011.9 997.5 0.5---------
2019-07-11 20:00:00 16.9 7.8 11.6--- 5550.0wx-wx1wx--11011.8 997.5 0.4---------
2019-07-11 19:00:00 20.3 7.6 13.1--- 4450.0wx-wx1wx--11011.4 997.2 0.1---------
2019-07-11 18:00:00 23.5 6.3 14.0 24.5 16.6- 3350.0wx-wx2wx--21011.0 997.0 -0.3- 0.012------
2019-07-11 17:00:00 23.5 6.3 14.0--- 3350.0wx-wx2wx--21011.1 997.1 -0.5---------
2019-07-11 16:00:00 23.8 6.6 14.2--- 3350.0wx-wx2wx--21011.1 997.1 -0.8---------
2019-07-11 15:00:00 23.6 6.8 14.2--- 3450.0wxwxwxwx3wx--31011.3 997.3 -1.0---------
2019-07-11 14:00:00 24.2 7.3 14.7--- 3450.0wxwxwx3wx--31011.6 997.6 -1.0---------
2019-07-11 13:00:00 23.2 6.9 14.1--- 3550.0wxwxwx3wx--31011.9 997.9 -1.0---------
2019-07-11 12:00:00 22.2 8.0 14.1--- 4050.0wxwxwxwx3wx-831012.4 998.3 -0.9- 0.06------
2019-07-11 11:00:00 22.3 8.4 14.3--- 4150.0wxwxwxwx4wx-841012.7 998.6 -0.7---------
2019-07-11 10:00:00 21.2 8.5 13.9--- 4450.0wxwxwxwx3wx-831013.0 998.9 -0.3---------
2019-07-11 09:00:00 20.4 9.3 13.9--- 4950.0wxwxwxwx3wx8831013.4 999.2 0.0---------
2019-07-11 08:00:00 18.8 9.6 13.3--- 5550.0wxwxwxwx4wx--41013.6 999.3 0.3---------
2019-07-11 07:00:00 17.9 10.8 13.5--- 6350.0wxwxwxwx4wx---1013.5 999.2 0.2---------
2019-07-11 06:00:00 16.6 11.7 13.4 16.6 12.7 12 7350.0wx-wx3wx--31013.6 999.2 0.1 0.6-12----- 4.7
2019-07-11 05:00:00 15.6 11.8 13.1--- 7850.0wxwxwxwx3wx--31013.4 999.0 -0.2---------
2019-07-11 04:00:00 14.1 11.8 12.5--- 8650.0wxwxwxwx3wx--31013.5 999.0 -0.6---------
2019-07-11 03:00:00 13.4 11.5 12.1--- 8850.0wxwxwxwx2wx--21013.6 999.1 -0.7---------
2019-07-11 02:00:00 13.3 11.2 11.9--- 8750.0wx-wx3wx--31013.7 999.2 -0.7---------
2019-07-11 01:00:00 12.9 11.0 11.6--- 8850.0wx-wx3wx--31014.2 999.6 -0.4---------
2019-07-11 00:00:00 14.1 11.8 12.5--- 8650.0wx-wx3wx--31014.3 999.8 -0.4--6wx-w1w2--
1.8 ms

 

Print Friendly, PDF & Email